sensor_id;sensor_type;location;lat;lon;timestamp;pressure;altitude;pressure_sealevel;temperature;humidity
70952;BME280;69214;55.880;37.542;2023-05-03T00:00:43;99032.03;;;7.67;46.18
70952;BME280;69214;55.880;37.542;2023-05-03T00:03:09;99027.28;;;7.62;44.86
70952;BME280;69214;55.880;37.542;2023-05-03T00:05:35;99028.47;;;7.66;45.92
70952;BME280;69214;55.880;37.542;2023-05-03T00:08:01;99021.00;;;7.62;45.97
70952;BME280;69214;55.880;37.542;2023-05-03T00:10:27;99029.75;;;7.64;46.09
70952;BME280;69214;55.880;37.542;2023-05-03T00:12:53;99002.50;;;7.52;46.17
70952;BME280;69214;55.880;37.542;2023-05-03T00:15:19;99024.94;;;7.66;45.94
70952;BME280;69214;55.880;37.542;2023-05-03T00:17:45;99017.19;;;7.69;46.61
70952;BME280;69214;55.880;37.542;2023-05-03T00:20:11;99019.44;;;7.72;46.12
70952;BME280;69214;55.880;37.542;2023-05-03T00:22:36;99010.16;;;7.80;45.32
70952;BME280;69214;55.880;37.542;2023-05-03T00:25:03;99005.34;;;7.82;45.73
70952;BME280;69214;55.880;37.542;2023-05-03T00:27:29;99010.47;;;7.90;45.76
70952;BME280;69214;55.880;37.542;2023-05-03T00:29:55;98992.69;;;7.94;45.97
70952;BME280;69214;55.880;37.542;2023-05-03T00:32:20;99003.84;;;8.04;45.77
70952;BME280;69214;55.880;37.542;2023-05-03T00:34:56;99006.47;;;8.11;44.59
70952;BME280;69214;55.880;37.542;2023-05-03T00:37:23;98995.84;;;8.09;45.26
70952;BME280;69214;55.880;37.542;2023-05-03T00:39:49;98978.34;;;8.05;45.70
70952;BME280;69214;55.880;37.542;2023-05-03T00:42:15;98984.16;;;8.09;44.96
70952;BME280;69214;55.880;37.542;2023-05-03T00:44:41;99000.00;;;8.12;45.13
70952;BME280;69214;55.880;37.542;2023-05-03T00:47:07;98993.72;;;8.11;45.45
70952;BME280;69214;55.880;37.542;2023-05-03T00:49:33;98996.28;;;8.06;46.17
70952;BME280;69214;55.880;37.542;2023-05-03T00:52:00;98985.81;;;7.92;45.74
70952;BME280;69214;55.880;37.542;2023-05-03T00:54:27;98973.72;;;7.88;45.98
70952;BME280;69214;55.880;37.542;2023-05-03T00:56:56;98986.25;;;7.89;45.98
70952;BME280;69214;55.880;37.542;2023-05-03T00:59:22;98976.06;;;7.84;46.04
70952;BME280;69214;55.880;37.542;2023-05-03T01:01:50;98968.00;;;7.77;45.96
70952;BME280;69214;55.880;37.542;2023-05-03T01:04:16;98964.06;;;7.73;46.21
70952;BME280;69214;55.880;37.542;2023-05-03T01:07:12;98963.03;;;7.74;44.50
70952;BME280;69214;55.880;37.542;2023-05-03T01:12:38;98959.31;;;7.69;44.30
70952;BME280;69214;55.880;37.542;2023-05-03T01:17:38;98962.25;;;7.67;45.50
70952;BME280;69214;55.880;37.542;2023-05-03T01:20:05;98954.34;;;7.66;46.21
70952;BME280;69214;55.880;37.542;2023-05-03T01:22:49;98964.06;;;7.73;44.96
70952;BME280;69214;55.880;37.542;2023-05-03T01:25:20;98960.91;;;7.76;46.17
70952;BME280;69214;55.880;37.542;2023-05-03T01:27:46;98957.50;;;7.81;45.91
70952;BME280;69214;55.880;37.542;2023-05-03T01:30:12;98951.19;;;7.87;46.61
70952;BME280;69214;55.880;37.542;2023-05-03T01:35:46;98943.38;;;8.09;44.44
70952;BME280;69214;55.880;37.542;2023-05-03T01:38:17;98949.94;;;8.20;45.01
70952;BME280;69214;55.880;37.542;2023-05-03T01:40:52;98946.66;;;8.29;44.29
70952;BME280;69214;55.880;37.542;2023-05-03T01:43:21;98930.81;;;8.26;45.39
70952;BME280;69214;55.880;37.542;2023-05-03T01:45:47;98931.28;;;8.41;44.92
70952;BME280;69214;55.880;37.542;2023-05-03T01:48:16;98935.56;;;8.49;45.43
70952;BME280;69214;55.880;37.542;2023-05-03T01:50:42;98928.97;;;8.57;45.03
70952;BME280;69214;55.880;37.542;2023-05-03T01:53:09;98932.28;;;8.59;44.72
70952;BME280;69214;55.880;37.542;2023-05-03T01:55:34;98932.63;;;8.62;45.02
70952;BME280;69214;55.880;37.542;2023-05-03T01:58:00;98922.94;;;8.66;45.27
70952;BME280;69214;55.880;37.542;2023-05-03T02:00:26;98923.78;;;8.67;45.22
70952;BME280;69214;55.880;37.542;2023-05-03T02:02:52;98912.44;;;8.70;45.27
70952;BME280;69214;55.880;37.542;2023-05-03T02:05:18;98924.63;;;8.79;45.70
70952;BME280;69214;55.880;37.542;2023-05-03T02:07:43;98915.78;;;8.84;44.95
70952;BME280;69214;55.880;37.542;2023-05-03T02:10:09;98918.63;;;8.89;44.68
70952;BME280;69214;55.880;37.542;2023-05-03T02:12:40;98893.28;;;8.76;44.15
70952;BME280;69214;55.880;37.542;2023-05-03T02:15:07;98924.91;;;9.01;44.21
70952;BME280;69214;55.880;37.542;2023-05-03T02:17:33;98913.19;;;9.00;44.43
70952;BME280;69214;55.880;37.542;2023-05-03T02:19:59;98910.59;;;9.05;44.22
70952;BME280;69214;55.880;37.542;2023-05-03T02:22:25;98889.28;;;8.91;44.75
70952;BME280;69214;55.880;37.542;2023-05-03T02:24:53;98903.63;;;9.09;44.42
70952;BME280;69214;55.880;37.542;2023-05-03T02:27:20;98895.44;;;9.09;44.56
70952;BME280;69214;55.880;37.542;2023-05-03T02:29:45;98908.00;;;9.22;44.57
70952;BME280;69214;55.880;37.542;2023-05-03T02:32:11;98909.78;;;9.28;43.95
70952;BME280;69214;55.880;37.542;2023-05-03T02:34:37;98907.41;;;9.32;43.80
70952;BME280;69214;55.880;37.542;2023-05-03T02:37:03;98906.94;;;9.35;44.45
70952;BME280;69214;55.880;37.542;2023-05-03T02:39:29;98898.28;;;9.38;44.33
70952;BME280;69214;55.880;37.542;2023-05-03T02:41:55;98898.41;;;9.43;44.30
70952;BME280;69214;55.880;37.542;2023-05-03T02:44:21;98910.00;;;9.50;44.29
70952;BME280;69214;55.880;37.542;2023-05-03T02:46:47;98907.97;;;9.57;43.74
70952;BME280;69214;55.880;37.542;2023-05-03T02:49:14;98889.16;;;9.56;43.67
70952;BME280;69214;55.880;37.542;2023-05-03T02:51:40;98898.72;;;9.70;43.63
70952;BME280;69214;55.880;37.542;2023-05-03T02:54:06;98874.47;;;9.57;43.65
70952;BME280;69214;55.880;37.542;2023-05-03T02:56:31;98883.94;;;9.66;44.10
70952;BME280;69214;55.880;37.542;2023-05-03T02:58:58;98903.66;;;9.85;43.58
70952;BME280;69214;55.880;37.542;2023-05-03T03:01:23;98873.00;;;9.78;44.18
70952;BME280;69214;55.880;37.542;2023-05-03T03:03:49;98919.94;;;10.08;43.91
70952;BME280;69214;55.880;37.542;2023-05-03T03:06:15;98906.91;;;10.22;42.69
70952;BME280;69214;55.880;37.542;2023-05-03T03:08:41;98905.53;;;10.36;42.52
70952;BME280;69214;55.880;37.542;2023-05-03T03:11:07;98911.41;;;10.45;43.25
70952;BME280;69214;55.880;37.542;2023-05-03T03:13:33;98918.41;;;10.41;42.60
70952;BME280;69214;55.880;37.542;2023-05-03T03:16:07;98907.50;;;10.41;42.64
70952;BME280;69214;55.880;37.542;2023-05-03T03:18:35;98914.31;;;10.38;43.14
70952;BME280;69214;55.880;37.542;2023-05-03T03:21:02;98921.91;;;10.36;43.01
70952;BME280;69214;55.880;37.542;2023-05-03T03:23:29;98919.91;;;10.31;43.36
70952;BME280;69214;55.880;37.542;2023-05-03T03:25:56;98922.88;;;10.30;43.41
70952;BME280;69214;55.880;37.542;2023-05-03T03:28:23;98918.50;;;10.29;43.08
70952;BME280;69214;55.880;37.542;2023-05-03T03:30:49;98927.75;;;10.28;43.13
70952;BME280;69214;55.880;37.542;2023-05-03T03:33:20;98913.28;;;10.27;43.66
70952;BME280;69214;55.880;37.542;2023-05-03T03:35:46;98924.09;;;10.22;43.39
70952;BME280;69214;55.880;37.542;2023-05-03T03:38:14;98926.44;;;10.30;43.34
70952;BME280;69214;55.880;37.542;2023-05-03T03:40:48;98919.22;;;10.24;43.83
70952;BME280;69214;55.880;37.542;2023-05-03T03:43:14;98924.53;;;10.31;43.66
70952;BME280;69214;55.880;37.542;2023-05-03T03:45:40;98919.06;;;10.31;43.61
70952;BME280;69214;55.880;37.542;2023-05-03T03:48:06;98902.38;;;10.27;43.16
70952;BME280;69214;55.880;37.542;2023-05-03T03:50:32;98936.44;;;10.42;43.33
70952;BME280;69214;55.880;37.542;2023-05-03T03:52:58;98953.97;;;10.46;43.63
70952;BME280;69214;55.880;37.542;2023-05-03T03:55:24;98951.00;;;10.47;43.20
70952;BME280;69214;55.880;37.542;2023-05-03T03:57:52;98934.78;;;10.41;43.71
70952;BME280;69214;55.880;37.542;2023-05-03T04:00:18;98939.69;;;10.38;44.02
70952;BME280;69214;55.880;37.542;2023-05-03T04:02:50;98962.56;;;10.37;44.12
70952;BME280;69214;55.880;37.542;2023-05-03T04:05:17;98947.22;;;10.20;44.75
70952;BME280;69214;55.880;37.542;2023-05-03T04:07:44;98951.22;;;10.17;45.66
70952;BME280;69214;55.880;37.542;2023-05-03T04:10:11;98938.44;;;10.06;50.12
70952;BME280;69214;55.880;37.542;2023-05-03T04:12:39;98951.28;;;9.94;51.00
70952;BME280;69214;55.880;37.542;2023-05-03T04:15:06;98949.28;;;9.78;50.39
70952;BME280;69214;55.880;37.542;2023-05-03T04:17:33;98942.19;;;9.77;48.78
70952;BME280;69214;55.880;37.542;2023-05-03T04:20:02;98942.66;;;9.73;49.29
70952;BME280;69214;55.880;37.542;2023-05-03T04:22:32;98956.03;;;9.87;49.33
70952;BME280;69214;55.880;37.542;2023-05-03T04:24:58;98962.53;;;9.97;49.52
70952;BME280;69214;55.880;37.542;2023-05-03T04:27:26;98947.59;;;10.00;48.53
70952;BME280;69214;55.880;37.542;2023-05-03T04:29:53;98960.59;;;10.10;47.74
70952;BME280;69214;55.880;37.542;2023-05-03T04:32:20;98961.19;;;10.12;47.46
70952;BME280;69214;55.880;37.542;2023-05-03T04:34:48;98961.78;;;10.14;47.94
70952;BME280;69214;55.880;37.542;2023-05-03T04:37:17;98957.63;;;10.11;48.02
70952;BME280;69214;55.880;37.542;2023-05-03T04:39:47;98955.28;;;10.03;49.71
70952;BME280;69214;55.880;37.542;2023-05-03T04:42:13;98966.19;;;10.03;49.16
70952;BME280;69214;55.880;37.542;2023-05-03T04:44:43;98967.84;;;10.04;47.18
70952;BME280;69214;55.880;37.542;2023-05-03T04:47:10;98973.53;;;10.02;49.91
70952;BME280;69214;55.880;37.542;2023-05-03T04:49:36;98971.41;;;10.04;49.96
70952;BME280;69214;55.880;37.542;2023-05-03T04:52:03;98971.66;;;10.03;50.23
70952;BME280;69214;55.880;37.542;2023-05-03T04:54:30;98976.97;;;10.10;49.89
70952;BME280;69214;55.880;37.542;2023-05-03T04:56:56;98968.53;;;10.11;49.79
70952;BME280;69214;55.880;37.542;2023-05-03T04:59:22;98982.28;;;10.28;50.15
70952;BME280;69214;55.880;37.542;2023-05-03T05:01:48;98975.97;;;10.39;49.47
70952;BME280;69214;55.880;37.542;2023-05-03T05:04:14;98973.75;;;10.53;49.35
70952;BME280;69214;55.880;37.542;2023-05-03T05:06:44;98969.25;;;10.75;48.82
70952;BME280;69214;55.880;37.542;2023-05-03T05:09:23;98957.13;;;10.99;46.55
70952;BME280;69214;55.880;37.542;2023-05-03T05:11:51;98975.25;;;11.39;48.09
70952;BME280;69214;55.880;37.542;2023-05-03T05:14:18;98967.59;;;11.75;47.62
70952;BME280;69214;55.880;37.542;2023-05-03T05:16:45;98973.03;;;12.08;46.75
70952;BME280;69214;55.880;37.542;2023-05-03T05:19:11;98972.25;;;12.35;46.41
70952;BME280;69214;55.880;37.542;2023-05-03T05:21:38;98966.06;;;12.44;45.79
70952;BME280;69214;55.880;37.542;2023-05-03T05:24:04;98975.41;;;12.70;46.07
70952;BME280;69214;55.880;37.542;2023-05-03T05:26:30;98971.72;;;12.86;45.05
70952;BME280;69214;55.880;37.542;2023-05-03T05:28:56;98969.34;;;12.95;45.10
70952;BME280;69214;55.880;37.542;2023-05-03T05:31:22;98974.88;;;13.00;44.77
70952;BME280;69214;55.880;37.542;2023-05-03T05:33:49;98960.09;;;13.01;44.84
70952;BME280;69214;55.880;37.542;2023-05-03T05:36:16;98972.66;;;13.24;44.79
70952;BME280;69214;55.880;37.542;2023-05-03T05:38:42;98966.69;;;13.32;44.50
70952;BME280;69214;55.880;37.542;2023-05-03T05:41:08;98972.63;;;13.56;44.73
70952;BME280;69214;55.880;37.542;2023-05-03T05:43:36;98973.72;;;13.55;44.32
70952;BME280;69214;55.880;37.542;2023-05-03T05:46:02;98980.75;;;13.41;44.82
70952;BME280;69214;55.880;37.542;2023-05-03T05:48:28;98983.25;;;13.15;45.19
70952;BME280;69214;55.880;37.542;2023-05-03T05:50:55;98983.31;;;12.93;45.43
70952;BME280;69214;55.880;37.542;2023-05-03T05:53:22;98968.63;;;12.78;45.93
70952;BME280;69214;55.880;37.542;2023-05-03T05:55:56;98984.34;;;12.87;45.74
70952;BME280;69214;55.880;37.542;2023-05-03T05:58:24;98980.56;;;13.20;45.37
70952;BME280;69214;55.880;37.542;2023-05-03T06:00:57;98968.53;;;13.58;43.84
70952;BME280;69214;55.880;37.542;2023-05-03T06:03:23;98966.56;;;13.91;44.47
70952;BME280;69214;55.880;37.542;2023-05-03T06:05:50;98958.28;;;14.38;43.29
70952;BME280;69214;55.880;37.542;2023-05-03T06:08:15;98971.41;;;15.39;41.82
70952;BME280;69214;55.880;37.542;2023-05-03T06:10:41;98980.09;;;16.12;40.53
70952;BME280;69214;55.880;37.542;2023-05-03T06:13:07;98981.72;;;16.24;40.55
70952;BME280;69214;55.880;37.542;2023-05-03T06:15:33;98977.03;;;16.24;40.39
70952;BME280;69214;55.880;37.542;2023-05-03T06:17:59;98982.19;;;16.41;40.51
70952;BME280;69214;55.880;37.542;2023-05-03T06:20:25;98980.47;;;16.55;40.28
70952;BME280;69214;55.880;37.542;2023-05-03T06:22:51;98986.25;;;16.59;40.11
70952;BME280;69214;55.880;37.542;2023-05-03T06:25:17;98991.03;;;16.33;40.71
70952;BME280;69214;55.880;37.542;2023-05-03T06:27:44;98992.25;;;15.86;41.36
70952;BME280;69214;55.880;37.542;2023-05-03T06:30:11;99002.75;;;15.43;42.04
70952;BME280;69214;55.880;37.542;2023-05-03T06:32:38;98994.47;;;15.18;42.83
70952;BME280;69214;55.880;37.542;2023-05-03T06:35:07;98997.53;;;15.42;42.45
70952;BME280;69214;55.880;37.542;2023-05-03T06:37:35;99004.28;;;16.20;41.29
70952;BME280;69214;55.880;37.542;2023-05-03T06:40:01;98998.19;;;17.37;39.80
70952;BME280;69214;55.880;37.542;2023-05-03T06:42:26;98997.72;;;18.89;37.55
70952;BME280;69214;55.880;37.542;2023-05-03T06:45:04;98984.00;;;20.32;35.72
70952;BME280;69214;55.880;37.542;2023-05-03T06:47:30;98996.13;;;22.25;33.20
70952;BME280;69214;55.880;37.542;2023-05-03T06:49:56;98996.34;;;24.53;30.82
70952;BME280;69214;55.880;37.542;2023-05-03T06:52:22;98994.09;;;26.59;28.49
70952;BME280;69214;55.880;37.542;2023-05-03T06:54:47;98994.97;;;28.20;26.68
70952;BME280;69214;55.880;37.542;2023-05-03T06:57:13;98999.47;;;28.84;25.79
70952;BME280;69214;55.880;37.542;2023-05-03T06:59:39;99004.13;;;29.11;25.44
70952;BME280;69214;55.880;37.542;2023-05-03T07:02:05;99002.69;;;29.01;25.39
70952;BME280;69214;55.880;37.542;2023-05-03T07:04:31;99018.38;;;28.71;25.71
70952;BME280;69214;55.880;37.542;2023-05-03T07:06:57;99007.22;;;28.27;25.94
70952;BME280;69214;55.880;37.542;2023-05-03T07:09:23;99007.88;;;27.65;26.68
70952;BME280;69214;55.880;37.542;2023-05-03T07:11:49;99015.81;;;27.10;27.37
70952;BME280;69214;55.880;37.542;2023-05-03T07:14:16;99015.31;;;26.60;27.47
70952;BME280;69214;55.880;37.542;2023-05-03T07:16:42;99014.38;;;25.98;27.90
70952;BME280;69214;55.880;37.542;2023-05-03T07:19:07;98997.31;;;25.16;29.10
70952;BME280;69214;55.880;37.542;2023-05-03T07:21:33;99013.59;;;24.56;30.00
70952;BME280;69214;55.880;37.542;2023-05-03T07:23:59;99021.25;;;24.12;30.29
70952;BME280;69214;55.880;37.542;2023-05-03T07:26:26;99023.72;;;24.13;30.71
70952;BME280;69214;55.880;37.542;2023-05-03T07:28:52;99020.72;;;24.74;29.82
70952;BME280;69214;55.880;37.542;2023-05-03T07:31:19;99019.28;;;25.27;29.44
70952;BME280;69214;55.880;37.542;2023-05-03T07:33:45;99015.59;;;25.76;28.75
70952;BME280;69214;55.880;37.542;2023-05-03T07:36:11;99015.03;;;27.38;27.23
70952;BME280;69214;55.880;37.542;2023-05-03T07:38:36;99025.56;;;28.84;25.33
70952;BME280;69214;55.880;37.542;2023-05-03T07:41:02;99018.78;;;29.55;24.75
70952;BME280;69214;55.880;37.542;2023-05-03T07:43:29;99024.34;;;29.71;25.07
70952;BME280;69214;55.880;37.542;2023-05-03T07:45:55;99029.53;;;29.69;24.44
70952;BME280;69214;55.880;37.542;2023-05-03T07:48:20;99031.31;;;29.77;24.12
70952;BME280;69214;55.880;37.542;2023-05-03T07:50:46;99035.97;;;29.34;24.67
70952;BME280;69214;55.880;37.542;2023-05-03T07:53:13;99041.66;;;28.56;25.92
70952;BME280;69214;55.880;37.542;2023-05-03T07:55:38;99046.25;;;27.77;25.89
70952;BME280;69214;55.880;37.542;2023-05-03T07:58:05;99041.03;;;26.98;26.23
70952;BME280;69214;55.880;37.542;2023-05-03T08:00:31;99045.38;;;25.93;27.51
70952;BME280;69214;55.880;37.542;2023-05-03T08:02:57;99029.38;;;24.43;29.24
70952;BME280;69214;55.880;37.542;2023-05-03T08:05:22;99057.84;;;23.33;30.44
70952;BME280;69214;55.880;37.542;2023-05-03T08:07:49;99047.06;;;22.12;32.19
70952;BME280;69214;55.880;37.542;2023-05-03T08:10:15;99061.50;;;21.06;33.40
70952;BME280;69214;55.880;37.542;2023-05-03T08:12:41;99061.13;;;20.12;34.94
70952;BME280;69214;55.880;37.542;2023-05-03T08:15:07;99065.94;;;19.36;36.06
70952;BME280;69214;55.880;37.542;2023-05-03T08:17:44;99063.75;;;18.71;36.56
70952;BME280;69214;55.880;37.542;2023-05-03T08:20:11;99067.88;;;18.21;37.83
70952;BME280;69214;55.880;37.542;2023-05-03T08:22:38;99065.50;;;18.09;38.13
70952;BME280;69214;55.880;37.542;2023-05-03T08:25:05;99066.09;;;18.06;38.27
70952;BME280;69214;55.880;37.542;2023-05-03T08:27:32;99073.53;;;18.06;38.46
70952;BME280;69214;55.880;37.542;2023-05-03T08:29:58;99061.72;;;18.00;38.63
70952;BME280;69214;55.880;37.542;2023-05-03T08:32:26;99069.91;;;18.10;38.36
70952;BME280;69214;55.880;37.542;2023-05-03T08:34:53;99080.13;;;18.10;38.36
70952;BME280;69214;55.880;37.542;2023-05-03T08:37:20;99085.66;;;18.10;39.06
70952;BME280;69214;55.880;37.542;2023-05-03T08:39:46;99082.06;;;18.09;39.18
70952;BME280;69214;55.880;37.542;2023-05-03T08:42:12;99068.88;;;18.01;39.27
70952;BME280;69214;55.880;37.542;2023-05-03T08:44:44;99069.75;;;17.97;37.94
70952;BME280;69214;55.880;37.542;2023-05-03T08:47:16;99065.03;;;17.68;38.33
70952;BME280;69214;55.880;37.542;2023-05-03T08:49:42;99059.94;;;17.41;40.71
70952;BME280;69214;55.880;37.542;2023-05-03T08:52:10;99065.00;;;17.29;40.64
70952;BME280;69214;55.880;37.542;2023-05-03T08:54:37;99051.22;;;17.29;40.65
70952;BME280;69214;55.880;37.542;2023-05-03T08:57:03;99049.22;;;17.40;40.62
70952;BME280;69214;55.880;37.542;2023-05-03T08:59:28;99060.63;;;17.67;40.66
70952;BME280;69214;55.880;37.542;2023-05-03T09:01:54;99063.50;;;17.86;40.66
70952;BME280;69214;55.880;37.542;2023-05-03T09:04:31;99047.63;;;18.02;38.12
70952;BME280;69214;55.880;37.542;2023-05-03T09:07:08;99060.50;;;18.40;37.91
70952;BME280;69214;55.880;37.542;2023-05-03T09:09:35;99064.56;;;18.72;39.43
70952;BME280;69214;55.880;37.542;2023-05-03T09:12:02;99061.50;;;18.97;38.94
70952;BME280;69214;55.880;37.542;2023-05-03T09:14:28;99065.94;;;19.17;38.62
70952;BME280;69214;55.880;37.542;2023-05-03T09:16:54;99065.69;;;19.14;38.60
70952;BME280;69214;55.880;37.542;2023-05-03T09:19:20;99081.69;;;18.98;39.05
70952;BME280;69214;55.880;37.542;2023-05-03T09:21:48;99075.31;;;18.97;38.76
70952;BME280;69214;55.880;37.542;2023-05-03T09:24:16;99087.06;;;19.08;38.46
70952;BME280;69214;55.880;37.542;2023-05-03T09:26:44;99073.09;;;19.18;38.23
70952;BME280;69214;55.880;37.542;2023-05-03T09:29:29;99064.00;;;19.36;37.09
70952;BME280;69214;55.880;37.542;2023-05-03T09:32:01;99080.38;;;19.70;37.29
70952;BME280;69214;55.880;37.542;2023-05-03T09:34:30;99075.13;;;19.88;37.43
70952;BME280;69214;55.880;37.542;2023-05-03T09:36:57;99077.72;;;19.98;37.50
70952;BME280;69214;55.880;37.542;2023-05-03T09:39:22;99067.16;;;20.00;36.95
70952;BME280;69214;55.880;37.542;2023-05-03T09:41:49;99069.88;;;19.86;37.66
70952;BME280;69214;55.880;37.542;2023-05-03T09:44:16;99082.09;;;19.85;37.60
70952;BME280;69214;55.880;37.542;2023-05-03T09:47:03;99088.84;;;19.79;36.87
70952;BME280;69214;55.880;37.542;2023-05-03T09:49:30;99090.53;;;19.37;38.25
70952;BME280;69214;55.880;37.542;2023-05-03T09:51:58;99074.16;;;18.80;38.88
70952;BME280;69214;55.880;37.542;2023-05-03T09:54:24;99090.59;;;18.42;40.02
70952;BME280;69214;55.880;37.542;2023-05-03T09:56:52;99110.47;;;18.15;40.12
70952;BME280;69214;55.880;37.542;2023-05-03T09:59:19;99115.91;;;17.91;40.79
70952;BME280;69214;55.880;37.542;2023-05-03T10:01:46;99104.19;;;17.70;40.93
70952;BME280;69214;55.880;37.542;2023-05-03T10:04:16;99098.50;;;17.52;39.98
70952;BME280;69214;55.880;37.542;2023-05-03T10:06:47;99082.56;;;17.43;40.10
70952;BME280;69214;55.880;37.542;2023-05-03T10:11:57;99104.84;;;18.25;39.50
70952;BME280;69214;55.880;37.542;2023-05-03T10:14:23;99111.09;;;18.89;39.49
70952;BME280;69214;55.880;37.542;2023-05-03T10:17:13;99111.81;;;19.61;37.38
70952;BME280;69214;55.880;37.542;2023-05-03T10:20:11;99107.72;;;20.10;36.92
70952;BME280;69214;55.880;37.542;2023-05-03T10:23:06;99120.41;;;20.29;36.69
70952;BME280;69214;55.880;37.542;2023-05-03T10:25:34;99105.16;;;20.13;37.04
70952;BME280;69214;55.880;37.542;2023-05-03T10:28:06;99109.53;;;20.00;36.81
70952;BME280;69214;55.880;37.542;2023-05-03T10:30:34;99099.31;;;19.82;37.27
70952;BME280;69214;55.880;37.542;2023-05-03T10:35:39;99103.06;;;19.54;37.71
70952;BME280;69214;55.880;37.542;2023-05-03T10:38:22;99104.13;;;19.58;37.36
70952;BME280;69214;55.880;37.542;2023-05-03T10:40:49;99106.41;;;19.51;37.96
70952;BME280;69214;55.880;37.542;2023-05-03T10:48:27;99095.47;;;19.40;38.45
70952;BME280;69214;55.880;37.542;2023-05-03T10:50:54;99108.47;;;19.21;38.54
70952;BME280;69214;55.880;37.542;2023-05-03T10:53:40;99111.56;;;18.96;37.86
70952;BME280;69214;55.880;37.542;2023-05-03T10:56:09;99109.34;;;18.74;39.15
70952;BME280;69214;55.880;37.542;2023-05-03T11:01:13;99111.56;;;18.96;38.30
70952;BME280;69214;55.880;37.542;2023-05-03T11:04:01;99103.13;;;19.06;37.97
70952;BME280;69214;55.880;37.542;2023-05-03T11:06:34;99111.91;;;19.13;38.55
70952;BME280;69214;55.880;37.542;2023-05-03T11:09:03;99109.97;;;18.90;38.84
70952;BME280;69214;55.880;37.542;2023-05-03T11:11:29;99128.16;;;18.43;39.90
70952;BME280;69214;55.880;37.542;2023-05-03T11:13:56;99117.94;;;18.15;40.56
70952;BME280;69214;55.880;37.542;2023-05-03T11:16:22;99127.13;;;18.05;40.58
70952;BME280;69214;55.880;37.542;2023-05-03T11:18:48;99123.66;;;17.89;40.89
70952;BME280;69214;55.880;37.542;2023-05-03T11:21:16;99121.34;;;17.62;41.21
70952;BME280;69214;55.880;37.542;2023-05-03T11:23:43;99115.41;;;17.40;41.34
70952;BME280;69214;55.880;37.542;2023-05-03T11:26:09;99117.41;;;17.29;42.10
70952;BME280;69214;55.880;37.542;2023-05-03T11:28:38;99107.09;;;17.45;41.24
70952;BME280;69214;55.880;37.542;2023-05-03T11:31:05;99090.84;;;17.83;41.31
70952;BME280;69214;55.880;37.542;2023-05-03T11:33:32;99102.13;;;18.20;40.66
70952;BME280;69214;55.880;37.542;2023-05-03T11:36:03;99089.09;;;18.26;39.73
70952;BME280;69214;55.880;37.542;2023-05-03T11:38:33;99100.28;;;18.10;39.91
70952;BME280;69214;55.880;37.542;2023-05-03T11:41:00;99104.59;;;17.93;41.28
70952;BME280;69214;55.880;37.542;2023-05-03T11:43:39;99085.09;;;17.79;40.46
70952;BME280;69214;55.880;37.542;2023-05-03T11:46:05;99112.94;;;18.17;40.71
70952;BME280;69214;55.880;37.542;2023-05-03T11:48:31;99112.44;;;18.38;40.24
70952;BME280;69214;55.880;37.542;2023-05-03T11:50:57;99091.53;;;18.56;39.96
70952;BME280;69214;55.880;37.542;2023-05-03T11:53:24;99094.50;;;18.89;39.46
70952;BME280;69214;55.880;37.542;2023-05-03T11:55:51;99101.88;;;19.17;38.71
70952;BME280;69214;55.880;37.542;2023-05-03T11:58:22;99109.63;;;19.39;38.61
70952;BME280;69214;55.880;37.542;2023-05-03T12:00:50;99099.44;;;19.34;38.54
70952;BME280;69214;55.880;37.542;2023-05-03T12:03:27;99100.91;;;19.08;38.71
70952;BME280;69214;55.880;37.542;2023-05-03T12:05:54;99095.75;;;18.77;39.54
70952;BME280;69214;55.880;37.542;2023-05-03T12:08:20;99088.63;;;18.71;39.78
70952;BME280;69214;55.880;37.542;2023-05-03T12:10:48;99099.34;;;18.78;39.43
70952;BME280;69214;55.880;37.542;2023-05-03T12:13:25;99091.47;;;18.66;39.55
70952;BME280;69214;55.880;37.542;2023-05-03T12:15:55;99115.50;;;18.66;39.28
70952;BME280;69214;55.880;37.542;2023-05-03T12:18:22;99105.88;;;18.58;39.84
70952;BME280;69214;55.880;37.542;2023-05-03T12:20:54;99129.28;;;18.42;39.73
70952;BME280;69214;55.880;37.542;2023-05-03T12:23:22;99118.38;;;18.27;40.20
70952;BME280;69214;55.880;37.542;2023-05-03T12:25:48;99107.13;;;18.18;40.73
70952;BME280;69214;55.880;37.542;2023-05-03T12:28:16;99108.94;;;17.99;40.59
70952;BME280;69214;55.880;37.542;2023-05-03T12:30:42;99108.00;;;17.79;40.46
70952;BME280;69214;55.880;37.542;2023-05-03T12:33:08;99101.19;;;17.62;40.60
70952;BME280;69214;55.880;37.542;2023-05-03T12:35:34;99095.47;;;17.53;40.58
70952;BME280;69214;55.880;37.542;2023-05-03T12:38:01;99103.25;;;17.41;40.95
70952;BME280;69214;55.880;37.542;2023-05-03T12:40:28;99109.59;;;17.41;40.89
70952;BME280;69214;55.880;37.542;2023-05-03T12:42:54;99106.56;;;17.43;41.20
70952;BME280;69214;55.880;37.542;2023-05-03T12:45:26;99102.69;;;17.44;40.54
70952;BME280;69214;55.880;37.542;2023-05-03T12:47:52;99094.38;;;17.49;40.78
70952;BME280;69214;55.880;37.542;2023-05-03T12:50:18;99113.59;;;17.69;40.43
70952;BME280;69214;55.880;37.542;2023-05-03T12:52:44;99109.69;;;17.75;40.44
70952;BME280;69214;55.880;37.542;2023-05-03T12:55:10;99098.66;;;17.75;40.86
70952;BME280;69214;55.880;37.542;2023-05-03T12:57:36;99109.94;;;17.79;40.58
70952;BME280;69214;55.880;37.542;2023-05-03T13:00:02;99113.91;;;18.02;40.18
70952;BME280;69214;55.880;37.542;2023-05-03T13:02:30;99105.44;;;18.22;39.73
70952;BME280;69214;55.880;37.542;2023-05-03T13:04:57;99107.84;;;18.29;39.54
70952;BME280;69214;55.880;37.542;2023-05-03T13:07:24;99105.97;;;18.24;39.48
70952;BME280;69214;55.880;37.542;2023-05-03T13:09:53;99102.13;;;18.20;39.77
70952;BME280;69214;55.880;37.542;2023-05-03T13:12:19;99106.72;;;18.01;39.90
70952;BME280;69214;55.880;37.542;2023-05-03T13:14:49;99101.47;;;17.60;40.23
70952;BME280;69214;55.880;37.542;2023-05-03T13:17:16;99100.06;;;17.24;40.88